Terminal Aerodrome Forecast
Issued by NWS

Home | Current Version | Previous Version | Text Only | Print | Product List | Glossary On
Versions: 1 2 3 4 5 6 7 8 9 10 11 12
000
FTUS44 KLZK 311100
TAFHOT
TAF
KHOT 311138Z 3112/0112 12003KT P6SM OVC100
     FM311500 14007KT P6SM OVC090
     FM010000 12006KT P6SM OVC060 PROB30 0102/0108 -SHRA
     FM010800 15009KT P6SM OVC040 WS020/20040KT
      TEMPO 0108/0112 3SM -SHRA BR OVC025=

USA.gov is the U.S. government's official web portal to all federal, state and local government web resources and services.